createdAt,value
2018-04-19T00:00:38.945Z,99204.46
2018-04-19T00:01:43.618Z,99206.87
2018-04-19T00:02:48.713Z,99199.02
2018-04-19T00:03:54.033Z,99203.03
2018-04-19T00:04:59.099Z,99202.03
2018-04-19T00:06:05.210Z,99208.18
2018-04-19T00:07:10.016Z,99205.47
2018-04-19T00:08:15.402Z,99202.98
2018-04-19T00:09:21.752Z,99201.99
2018-04-19T00:10:27.730Z,99198.63
2018-04-19T00:11:33.573Z,99198.95
2018-04-19T00:12:38.657Z,99193.59
2018-04-19T00:13:46.293Z,99202.85
2018-04-19T00:14:50.953Z,99200.39
2018-04-19T00:15:56.133Z,99197.99
2018-04-19T00:17:01.098Z,99199.45
2018-04-19T00:18:06.511Z,99196.29
2018-04-19T00:19:11.940Z,99198.67
2018-04-19T00:20:17.286Z,99199.14
2018-04-19T00:21:21.934Z,99197.58
2018-04-19T00:22:27.483Z,99197.37
2018-04-19T00:23:33.270Z,99197.18
2018-04-19T00:24:38.847Z,99195.30
2018-04-19T00:25:44.338Z,99194.06
2018-04-19T00:26:49.112Z,99194.89
2018-04-19T00:27:55.502Z,99193.80
2018-04-19T00:29:00.890Z,99194.39
2018-04-19T00:30:06.190Z,99192.55
2018-04-19T00:31:12.039Z,99192.94
2018-04-19T00:32:17.413Z,99191.00
2018-04-19T00:33:23.118Z,99189.25
2018-04-19T00:34:28.325Z,99190.66
2018-04-19T00:35:33.777Z,99187.56
2018-04-19T00:36:40.800Z,99188.49
2018-04-19T00:37:46.778Z,99191.16
2018-04-19T00:38:51.318Z,99187.20
2018-04-19T00:39:56.434Z,99188.16
2018-04-19T00:41:02.558Z,99189.41
2018-04-19T00:42:07.860Z,99182.33
2018-04-19T00:43:13.612Z,99190.34
2018-04-19T00:44:18.948Z,99187.27
2018-04-19T00:45:24.551Z,99182.52
2018-04-19T00:46:30.368Z,99183.92
2018-04-19T00:47:35.511Z,99180.98
2018-04-19T00:48:40.622Z,99176.48
2018-04-19T00:49:46.232Z,99182.20
2018-04-19T00:50:51.231Z,99185.23
2018-04-19T00:51:56.846Z,99185.83
2018-04-19T00:53:05.696Z,99185.53
2018-04-19T00:54:10.253Z,99183.50
2018-04-19T00:55:14.754Z,99188.05
2018-04-19T00:56:20.141Z,99185.87
2018-04-19T00:57:25.065Z,99184.40
2018-04-19T00:58:30.079Z,99183.34
2018-04-19T00:59:35.175Z,99185.80
2018-04-19T01:00:40.093Z,99182.88
2018-04-19T01:01:46.145Z,99172.64
2018-04-19T01:02:56.703Z,99171.94
2018-04-19T01:04:01.224Z,99177.33
2018-04-19T01:05:05.744Z,99175.27
2018-04-19T01:06:10.228Z,99173.86
2018-04-19T01:07:14.897Z,99174.96
2018-04-19T01:08:20.575Z,99174.62
2018-04-19T01:09:26.128Z,99170.67
2018-04-19T01:10:30.875Z,99175.53
2018-04-19T01:11:36.994Z,99174.59
2018-04-19T01:12:42.595Z,99170.08
2018-04-19T01:13:47.400Z,99171.84
2018-04-19T01:14:52.458Z,99171.65
2018-04-19T01:15:58.415Z,99173.22
2018-04-19T01:17:04.223Z,99166.81
2018-04-19T01:18:09.305Z,99169.88
2018-04-19T01:19:14.985Z,99166.31
2018-04-19T01:20:19.915Z,99165.95
2018-04-19T01:21:24.723Z,99166.34
2018-04-19T01:22:31.474Z,99168.10
2018-04-19T01:23:37.012Z,99167.11
2018-04-19T01:24:42.180Z,99170.32
2018-04-19T01:25:49.734Z,99167.13
2018-04-19T01:26:54.275Z,99165.86
2018-04-19T01:27:58.833Z,99168.84
2018-04-19T01:29:04.389Z,99169.55
2018-04-19T01:30:09.781Z,99168.66
2018-04-19T01:31:14.718Z,99170.81
2018-04-19T01:32:20.174Z,99174.00
2018-04-19T01:33:25.634Z,99165.14
2018-04-19T01:34:30.770Z,99170.26
2018-04-19T01:35:40.329Z,99173.97
2018-04-19T01:36:44.759Z,99176.53
2018-04-19T01:37:49.469Z,99175.20
2018-04-19T01:38:54.467Z,99175.88
2018-04-19T01:39:59.624Z,99173.42
2018-04-19T01:41:06.101Z,99177.41
2018-04-19T01:42:11.414Z,99176.92
2018-04-19T01:43:16.973Z,99176.55
2018-04-19T01:44:22.886Z,99176.06
2018-04-19T01:45:28.050Z,99178.02
2018-04-19T01:46:32.886Z,99179.25
2018-04-19T01:47:37.624Z,99177.17
2018-04-19T01:48:43.461Z,99176.53
2018-04-19T01:49:49.083Z,99175.03
2018-04-19T01:50:54.742Z,99180.47
2018-04-19T01:52:00.659Z,99181.91
2018-04-19T01:53:05.570Z,99179.19
2018-04-19T01:54:10.846Z,99181.58
2018-04-19T01:55:17.623Z,99174.69
2018-04-19T01:56:23.636Z,99179.49
2018-04-19T01:57:28.937Z,99173.53
2018-04-19T01:58:33.648Z,99174.21
2018-04-19T01:59:38.327Z,99171.48
2018-04-19T02:00:43.461Z,99174.75
2018-04-19T02:01:49.171Z,99174.86
2018-04-19T02:02:54.536Z,99174.28
2018-04-19T02:04:00.534Z,99170.91
2018-04-19T02:05:06.385Z,99170.75
2018-04-19T02:06:12.294Z,99166.17
2018-04-19T02:07:18.488Z,99169.28
2018-04-19T02:08:23.487Z,99172.55
2018-04-19T02:09:28.427Z,99168.25
2018-04-19T02:10:33.387Z,99172.09
2018-04-19T02:11:38.504Z,99172.30
2018-04-19T02:12:45.202Z,99165.66
2018-04-19T02:13:50.924Z,99168.27
2018-04-19T02:14:56.204Z,99168.07
2018-04-19T02:16:01.324Z,99169.27
2018-04-19T02:17:07.195Z,99168.75
2018-04-19T02:18:12.320Z,99166.81
2018-04-19T02:19:17.374Z,99172.23
2018-04-19T02:20:23.774Z,99164.94
2018-04-19T02:21:28.858Z,99158.77
2018-04-19T02:22:33.777Z,99161.30
2018-04-19T02:23:39.514Z,99159.62
2018-04-19T02:24:45.447Z,99163.67
2018-04-19T02:25:52.127Z,99163.35
2018-04-19T02:26:57.354Z,99160.21
2018-04-19T02:28:02.764Z,99154.80
2018-04-19T02:29:08.931Z,99154.53
2018-04-19T02:30:13.650Z,99154.42
2018-04-19T02:31:18.660Z,99163.21
2018-04-19T02:32:24.387Z,99158.71
2018-04-19T02:33:29.943Z,99158.55
2018-04-19T02:34:35.469Z,99153.42
2018-04-19T02:35:40.848Z,99153.56
2018-04-19T02:36:45.999Z,99151.42
2018-04-19T02:37:51.131Z,99151.39
2018-04-19T02:38:56.519Z,99156.30
2018-04-19T02:40:01.445Z,99154.75
2018-04-19T02:41:07.073Z,99147.45
2018-04-19T02:42:12.138Z,99153.59
2018-04-19T02:43:18.491Z,99145.03
2018-04-19T02:44:23.688Z,99143.15
2018-04-19T02:45:29.588Z,99143.72
2018-04-19T02:46:35.342Z,99150.90
2018-04-19T02:47:40.551Z,99146.77
2018-04-19T02:48:46.629Z,99141.64
2018-04-19T02:49:51.656Z,99140.34
2018-04-19T02:50:57.546Z,99136.16
2018-04-19T02:52:02.959Z,99135.26
2018-04-19T02:53:08.850Z,99137.02
2018-04-19T02:54:13.707Z,99134.98
2018-04-19T02:55:19.154Z,99136.10
2018-04-19T02:56:24.668Z,99137.39
2018-04-19T02:57:30.525Z,99141.19
2018-04-19T02:58:36.325Z,99140.72
2018-04-19T02:59:41.217Z,99141.44
2018-04-19T03:00:46.906Z,99143.18
2018-04-19T03:01:52.225Z,99140.95
2018-04-19T03:02:57.599Z,99146.67
2018-04-19T03:04:03.358Z,99140.16
2018-04-19T03:05:08.664Z,99142.96
2018-04-19T03:06:14.911Z,99140.03
2018-04-19T03:07:21.097Z,99138.94
2018-04-19T03:08:25.593Z,99137.83
2018-04-19T03:09:30.547Z,99135.53
2018-04-19T03:10:36.209Z,99137.05
2018-04-19T03:11:41.828Z,99143.75
2018-04-19T03:12:46.951Z,99138.11
2018-04-19T03:13:53.114Z,99135.74
2018-04-19T03:14:58.737Z,99138.84
2018-04-19T03:16:04.600Z,99134.22
2018-04-19T03:17:10.182Z,99130.84
2018-04-19T03:18:15.191Z,99134.91
2018-04-19T03:19:20.096Z,99139.50
2018-04-19T03:20:26.073Z,99130.02
2018-04-19T03:21:31.100Z,99126.74
2018-04-19T03:22:36.036Z,99135.88
2018-04-19T03:23:42.673Z,99129.64
2018-04-19T03:24:47.912Z,99126.15
2018-04-19T03:25:53.422Z,99129.84
2018-04-19T03:26:59.493Z,99133.55
2018-04-19T03:28:04.684Z,99136.04
2018-04-19T03:29:09.726Z,99137.70
2018-04-19T03:30:15.879Z,99135.38
2018-04-19T03:31:21.343Z,99130.44
2018-04-19T03:32:26.206Z,99136.03
2018-04-19T03:33:31.851Z,99135.19
2018-04-19T03:34:37.980Z,99137.14
2018-04-19T03:35:43.746Z,99133.64
2018-04-19T03:36:49.523Z,99138.08
2018-04-19T03:37:54.467Z,99134.40
2018-04-19T03:38:59.991Z,99133.77
2018-04-19T03:40:05.443Z,99130.91
2018-04-19T03:41:10.756Z,99132.05
2018-04-19T03:42:17.015Z,99133.74
2018-04-19T03:43:22.604Z,99131.92
2018-04-19T03:44:28.235Z,99135.00
2018-04-19T03:45:33.303Z,99134.59
2018-04-19T03:46:38.908Z,99135.50
2018-04-19T03:47:43.782Z,99128.48
2018-04-19T03:48:49.944Z,99129.60
2018-04-19T03:49:54.854Z,99131.66
2018-04-19T03:51:00.817Z,99126.27
2018-04-19T03:52:07.192Z,99126.05
2018-04-19T03:53:13.821Z,99120.73
2018-04-19T03:54:18.418Z,99124.80
2018-04-19T03:55:23.654Z,99121.11
2018-04-19T03:56:28.571Z,99123.73
2018-04-19T03:57:34.398Z,99120.72
2018-04-19T03:58:39.769Z,99119.84
2018-04-19T03:59:44.790Z,99118.89
2018-04-19T04:00:50.585Z,99121.27
2018-04-19T04:01:56.642Z,99118.47
2018-04-19T04:03:02.031Z,99116.97
2018-04-19T04:04:08.504Z,99119.42
2018-04-19T04:05:13.392Z,99126.91
2018-04-19T04:06:18.591Z,99123.17
2018-04-19T04:07:23.450Z,99116.86
2018-04-19T04:08:29.251Z,99115.23
2018-04-19T04:09:34.859Z,99113.36
2018-04-19T04:10:40.175Z,99115.09
2018-04-19T04:11:45.737Z,99114.95
2018-04-19T04:12:50.843Z,99117.41
2018-04-19T04:13:56.378Z,99110.53
2018-04-19T04:15:01.737Z,99109.60
2018-04-19T04:16:07.462Z,99117.02
2018-04-19T04:17:17.469Z,99115.01
2018-04-19T04:20:32.443Z,99108.55
2018-04-19T04:21:41.247Z,99119.63
2018-04-19T04:22:51.070Z,99115.71
2018-04-19T04:23:56.183Z,99117.78
2018-04-19T04:25:02.989Z,99110.91
2018-04-19T04:26:08.409Z,99117.95
2018-04-19T04:27:13.917Z,99117.78
2018-04-19T04:28:18.840Z,99115.02
2018-04-19T04:29:24.314Z,99116.08
2018-04-19T04:30:30.212Z,99120.74
2018-04-19T04:31:34.928Z,99119.80
2018-04-19T04:32:40.798Z,99122.91
2018-04-19T04:33:46.253Z,99118.05
2018-04-19T04:34:51.710Z,99119.87
2018-04-19T04:35:57.544Z,99125.69
2018-04-19T04:37:03.108Z,99124.47
2018-04-19T04:38:07.979Z,99121.80
2018-04-19T04:39:13.986Z,99122.34
2018-04-19T04:40:19.808Z,99122.48
2018-04-19T04:41:24.609Z,99128.69
2018-04-19T04:42:30.364Z,99123.00
2018-04-19T04:43:35.607Z,99126.89
2018-04-19T04:44:40.601Z,99129.34
2018-04-19T04:45:47.491Z,99123.86
2018-04-19T04:46:52.241Z,99128.01
2018-04-19T04:47:57.939Z,99131.66
2018-04-19T04:49:04.516Z,99122.90
2018-04-19T04:50:09.638Z,99126.30
2018-04-19T04:51:14.258Z,99123.05
2018-04-19T04:52:20.170Z,99125.22
2018-04-19T04:53:25.018Z,99126.12
2018-04-19T04:54:30.089Z,99127.52
2018-04-19T04:55:35.387Z,99124.42
2018-04-19T04:56:41.822Z,99125.62
2018-04-19T04:57:46.925Z,99127.59
2018-04-19T04:58:52.986Z,99121.41
2018-04-19T04:59:59.048Z,99123.51
2018-04-19T05:01:04.056Z,99117.31
2018-04-19T05:02:08.764Z,99118.44
2018-04-19T05:03:14.365Z,99122.91
2018-04-19T05:04:19.199Z,99121.95
2018-04-19T05:05:25.708Z,99120.27
2018-04-19T05:06:30.651Z,99128.44
2018-04-19T05:07:36.826Z,99123.61
2018-04-19T05:08:43.161Z,99132.17
2018-04-19T05:09:48.036Z,99127.31
2018-04-19T05:10:53.967Z,99126.06
2018-04-19T05:11:59.476Z,99129.45
2018-04-19T05:13:04.680Z,99134.38
2018-04-19T05:14:09.822Z,99126.57
2018-04-19T05:15:15.393Z,99124.83
2018-04-19T05:16:21.934Z,99127.98
2018-04-19T05:17:26.428Z,99130.83
2018-04-19T05:18:32.121Z,99131.44
2018-04-19T05:19:36.723Z,99136.31
2018-04-19T05:20:41.052Z,99132.76
2018-04-19T05:21:46.764Z,99129.59
2018-04-19T05:22:51.152Z,99128.74
2018-04-19T05:23:56.404Z,99127.50
2018-04-19T05:25:01.102Z,99130.20
2018-04-19T05:26:06.712Z,99133.59
2018-04-19T05:27:11.350Z,99133.66
2018-04-19T05:28:17.386Z,99128.05
2018-04-19T05:29:21.853Z,99132.87
2018-04-19T05:30:29.301Z,99134.66
2018-04-19T05:31:35.262Z,99128.58
2018-04-19T05:32:39.971Z,99134.60
2018-04-19T05:33:44.863Z,99141.58
2018-04-19T05:34:49.446Z,99137.73
2018-04-19T05:35:54.112Z,99137.33
2018-04-19T05:36:58.869Z,99136.60
2018-04-19T05:38:03.445Z,99142.94
2018-04-19T05:39:08.229Z,99139.34
2018-04-19T05:40:12.813Z,99143.22
2018-04-19T05:41:18.220Z,99142.47
2018-04-19T05:42:22.621Z,99143.91
2018-04-19T05:43:28.540Z,99149.95
2018-04-19T05:44:32.948Z,99144.41
2018-04-19T05:45:38.727Z,99144.83
2018-04-19T05:46:43.128Z,99140.45
2018-04-19T05:47:48.537Z,99133.03
2018-04-19T05:48:53.235Z,99138.61
2018-04-19T05:49:59.346Z,99139.66
2018-04-19T05:51:03.993Z,99145.54
2018-04-19T05:52:09.943Z,99134.30
2018-04-19T05:53:14.495Z,99139.00
2018-04-19T05:54:19.775Z,99135.19
2018-04-19T05:55:24.901Z,99138.56
2018-04-19T05:56:29.622Z,99143.20
2018-04-19T05:57:34.593Z,99143.02
2018-04-19T05:58:39.433Z,99139.89
2018-04-19T05:59:44.025Z,99143.85
2018-04-19T06:00:48.601Z,99137.34
2018-04-19T06:01:53.549Z,99138.95
2018-04-19T06:02:58.386Z,99140.89
2018-04-19T06:04:03.866Z,99142.70
2018-04-19T06:05:09.181Z,99140.40
2018-04-19T06:06:14.375Z,99136.91
2018-04-19T06:07:19.553Z,99140.94
2018-04-19T06:08:26.046Z,99142.31
2018-04-19T06:09:32.262Z,99134.99
2018-04-19T06:10:37.559Z,99134.06
2018-04-19T06:11:43.066Z,99139.59
2018-04-19T06:12:48.064Z,99141.30
2018-04-19T06:13:53.478Z,99138.48
2018-04-19T06:14:58.927Z,99141.17
2018-04-19T06:16:04.930Z,99138.42
2018-04-19T06:17:10.739Z,99140.89
2018-04-19T06:18:15.755Z,99138.55
2018-04-19T06:19:21.239Z,99142.50
2018-04-19T06:20:27.583Z,99139.73
2018-04-19T06:21:32.365Z,99135.47
2018-04-19T06:22:38.346Z,99144.02
2018-04-19T06:23:43.077Z,99142.80
2018-04-19T06:24:48.458Z,99138.91
2018-04-19T06:25:53.674Z,99145.00
2018-04-19T06:26:59.203Z,99139.69
2018-04-19T06:28:04.492Z,99135.67
2018-04-19T06:29:09.862Z,99136.14
2018-04-19T06:30:15.839Z,99135.69
2018-04-19T06:31:21.616Z,99136.62
2018-04-19T06:32:27.292Z,99141.27
2018-04-19T06:33:32.645Z,99141.61
2018-04-19T06:34:37.435Z,99148.55
2018-04-19T06:35:42.491Z,99144.89
2018-04-19T06:36:47.668Z,99146.65
2018-04-19T06:37:55.339Z,99144.61
2018-04-19T06:38:59.947Z,99142.25
2018-04-19T06:40:05.647Z,99144.41
2018-04-19T06:41:10.358Z,99144.19
2018-04-19T06:42:15.730Z,99147.66
2018-04-19T06:43:21.290Z,99151.36
2018-04-19T06:44:26.889Z,99154.19
2018-04-19T06:45:31.732Z,99154.95
2018-04-19T06:46:37.300Z,99148.68
2018-04-19T06:47:42.274Z,99152.26
2018-04-19T06:48:47.556Z,99153.23
2018-04-19T06:49:54.346Z,99154.88
2018-04-19T06:50:59.704Z,99153.57
2018-04-19T06:52:05.239Z,99145.89
2018-04-19T06:53:11.148Z,99145.42
2018-04-19T06:54:16.905Z,99152.40
2018-04-19T06:55:22.444Z,99149.52
2018-04-19T06:56:28.288Z,99145.61
2018-04-19T06:57:33.362Z,99150.88
2018-04-19T06:58:38.919Z,99153.44
2018-04-19T06:59:44.941Z,99144.78
2018-04-19T07:00:49.980Z,99153.03
2018-04-19T07:01:55.804Z,99148.27
2018-04-19T07:03:00.692Z,99148.80
2018-04-19T07:04:06.715Z,99149.58
2018-04-19T07:05:11.481Z,99141.56
2018-04-19T07:06:17.652Z,99148.50
2018-04-19T07:07:23.203Z,99148.22
2018-04-19T07:08:28.606Z,99155.17
2018-04-19T07:09:34.694Z,99150.11
2018-04-19T07:10:39.610Z,99152.90
2018-04-19T07:11:45.537Z,99152.59
2018-04-19T07:12:53.335Z,99146.38
2018-04-19T07:13:58.023Z,99150.16
2018-04-19T07:15:02.909Z,99145.78
2018-04-19T07:16:08.351Z,99149.23
2018-04-19T07:17:13.228Z,99150.68
2018-04-19T07:18:18.857Z,99152.18
2018-04-19T07:19:24.596Z,99148.55
2018-04-19T07:20:30.272Z,99139.73
2018-04-19T07:21:35.780Z,99152.36
2018-04-19T07:22:41.920Z,99147.73
2018-04-19T07:23:46.660Z,99149.31
2018-04-19T07:24:52.013Z,99148.48
2018-04-19T07:25:57.344Z,99146.09
2018-04-19T07:27:02.413Z,99145.28
2018-04-19T07:28:08.114Z,99154.47
2018-04-19T07:29:13.445Z,99149.49
2018-04-19T07:30:18.632Z,99150.62
2018-04-19T07:31:25.090Z,99149.19
2018-04-19T07:32:30.197Z,99150.05
2018-04-19T07:33:36.011Z,99149.64
2018-04-19T07:34:41.534Z,99150.32
2018-04-19T07:35:46.469Z,99147.50
2018-04-19T07:36:51.191Z,99147.37
2018-04-19T07:37:57.230Z,99145.52
2018-04-19T07:39:03.762Z,99144.72
2018-04-19T07:40:09.352Z,99154.87
2018-04-19T07:41:14.100Z,99146.26
2018-04-19T07:42:20.398Z,99148.98
2018-04-19T07:43:25.916Z,99151.46
2018-04-19T07:44:31.662Z,99147.95
2018-04-19T07:45:36.438Z,99143.02
2018-04-19T07:46:41.950Z,99147.55
2018-04-19T07:47:46.795Z,99145.59
2018-04-19T07:48:52.190Z,99144.45
2018-04-19T07:49:57.144Z,99149.44
2018-04-19T07:51:03.550Z,99153.09
2018-04-19T07:52:08.946Z,99150.87
2018-04-19T07:53:14.166Z,99151.39
2018-04-19T07:54:19.548Z,99151.64
2018-04-19T07:55:24.716Z,99155.13
2018-04-19T07:56:30.343Z,99154.45
2018-04-19T07:57:36.057Z,99155.17
2018-04-19T07:58:41.210Z,99150.55
2018-04-19T07:59:45.907Z,99153.48
2018-04-19T08:00:50.981Z,99151.66
2018-04-19T08:01:56.657Z,99154.31
2018-04-19T08:03:01.274Z,99153.95
2018-04-19T08:04:06.425Z,99155.25
2018-04-19T08:05:11.575Z,99155.30
2018-04-19T08:06:16.241Z,99149.28
2018-04-19T08:07:20.890Z,99154.47
2018-04-19T08:08:25.548Z,99154.80
2018-04-19T08:09:30.175Z,99148.21
2018-04-19T08:10:34.907Z,99151.67
2018-04-19T08:11:39.506Z,99157.88
2018-04-19T08:12:44.208Z,99153.80
2018-04-19T08:13:49.280Z,99153.66
2018-04-19T08:14:55.220Z,99152.22
2018-04-19T08:16:01.301Z,99152.69
2018-04-19T08:17:06.659Z,99153.06
2018-04-19T08:18:11.458Z,99150.31
2018-04-19T08:19:16.659Z,99148.50
2018-04-19T08:20:21.672Z,99153.37
2018-04-19T08:21:27.033Z,99146.63
2018-04-19T08:22:32.604Z,99145.75
2018-04-19T08:23:38.681Z,99146.90
2018-04-19T08:24:44.423Z,99149.00
2018-04-19T08:25:49.600Z,99156.98
2018-04-19T08:26:54.482Z,99149.16
2018-04-19T08:27:59.545Z,99152.88
2018-04-19T08:29:05.129Z,99151.94
2018-04-19T08:30:10.340Z,99152.89
2018-04-19T08:31:15.879Z,99144.76
2018-04-19T08:32:21.437Z,99149.95
2018-04-19T08:33:27.788Z,99149.36
2018-04-19T08:34:33.561Z,99148.14
2018-04-19T08:35:39.370Z,99141.70
2018-04-19T08:36:44.385Z,99149.41
2018-04-19T08:37:49.204Z,99143.54
2018-04-19T08:38:55.055Z,99149.66
2018-04-19T08:39:59.964Z,99149.46
2018-04-19T08:41:04.864Z,99142.82
2018-04-19T08:42:12.234Z,99144.95
2018-04-19T08:43:17.488Z,99153.05
2018-04-19T08:44:22.584Z,99141.30
2018-04-19T08:45:28.098Z,99144.47
2018-04-19T08:46:32.884Z,99140.80
2018-04-19T08:47:41.209Z,99144.04
2018-04-19T08:48:46.884Z,99142.53
2018-04-19T08:49:51.894Z,99148.23
2018-04-19T08:50:56.482Z,99136.47
2018-04-19T08:52:02.488Z,99146.86
2018-04-19T08:53:07.877Z,99145.97
2018-04-19T08:54:12.642Z,99142.92
2018-04-19T08:55:18.126Z,99147.17
2018-04-19T08:56:23.003Z,99143.27
2018-04-19T08:57:27.737Z,99147.23
2018-04-19T08:58:32.665Z,99149.09
2018-04-19T08:59:38.227Z,99149.27
2018-04-19T09:00:44.453Z,99143.45
2018-04-19T09:01:50.518Z,99152.02
2018-04-19T09:02:56.364Z,99141.55
2018-04-19T09:04:02.332Z,99145.59
2018-04-19T09:05:10.696Z,99156.41
2018-04-19T09:06:15.267Z,99146.41
2018-04-19T09:07:19.877Z,99147.23
2018-04-19T09:08:24.803Z,99146.87
2018-04-19T09:09:29.689Z,99147.02
2018-04-19T09:10:35.110Z,99137.61
2018-04-19T09:11:40.275Z,99143.45
2018-04-19T09:12:46.299Z,99142.29
2018-04-19T09:13:52.394Z,99140.67
2018-04-19T09:14:57.004Z,99139.86
2018-04-19T09:16:02.704Z,99137.28
2018-04-19T09:17:07.872Z,99141.13
2018-04-19T09:18:12.688Z,99142.92
2018-04-19T09:19:19.528Z,99142.74
2018-04-19T09:20:24.220Z,99144.48
2018-04-19T09:21:29.266Z,99155.57
2018-04-19T09:22:34.345Z,99144.30
2018-04-19T09:23:39.532Z,99139.89
2018-04-19T09:24:44.757Z,99140.06
2018-04-19T09:25:51.804Z,99144.30
2018-04-19T09:26:56.628Z,99147.87
2018-04-19T09:28:01.827Z,99149.53
2018-04-19T09:29:07.806Z,99146.57
2018-04-19T09:30:13.393Z,99146.52
2018-04-19T09:31:19.342Z,99135.57
2018-04-19T09:32:24.999Z,99146.97
2018-04-19T09:33:32.020Z,99130.36
2018-04-19T09:34:37.036Z,99144.38
2018-04-19T09:35:42.644Z,99132.93
2018-04-19T09:36:47.391Z,99146.08
2018-04-19T09:37:53.035Z,99138.36
2018-04-19T09:38:59.304Z,99137.88
2018-04-19T09:40:04.479Z,99136.19
2018-04-19T09:41:09.461Z,99133.33
2018-04-19T09:42:15.752Z,99136.52
2018-04-19T09:43:20.751Z,99135.24
2018-04-19T09:44:26.755Z,99134.75
2018-04-19T09:45:32.436Z,99133.95
2018-04-19T09:46:37.235Z,99129.26
2018-04-19T09:47:41.718Z,99135.24
2018-04-19T09:48:46.724Z,99137.27
2018-04-19T09:49:52.633Z,99126.23
2018-04-19T09:50:59.750Z,99134.36
2018-04-19T09:52:05.495Z,99143.32
2018-04-19T09:53:10.358Z,99148.77
2018-04-19T09:54:14.984Z,99130.97
2018-04-19T09:55:19.546Z,99127.67
2018-04-19T09:56:24.132Z,99126.06
2018-04-19T09:57:28.670Z,99130.77
2018-04-19T09:58:33.598Z,99121.61
2018-04-19T09:59:39.193Z,99125.14
2018-04-19T10:00:45.830Z,99127.48
2018-04-19T10:01:52.181Z,99131.15
2018-04-19T10:02:58.864Z,99130.80
2018-04-19T10:04:03.585Z,99116.09
2018-04-19T10:05:12.581Z,99124.97
2018-04-19T10:06:19.155Z,99118.31
2018-04-19T10:07:24.148Z,99106.20
2018-04-19T10:08:28.828Z,99107.07
2018-04-19T10:09:33.444Z,99118.20
2018-04-19T10:10:38.377Z,99119.16
2018-04-19T10:11:42.980Z,99127.03
2018-04-19T10:12:47.852Z,99125.59
2018-04-19T10:13:52.427Z,99111.64
2018-04-19T10:14:56.982Z,99117.63
2018-04-19T10:16:01.913Z,99115.05
2018-04-19T10:17:07.140Z,99118.11
2018-04-19T10:18:11.896Z,99113.66
2018-04-19T10:19:17.609Z,99118.79
2018-04-19T10:20:23.535Z,99113.22
2018-04-19T10:21:28.541Z,99118.69
2018-04-19T10:22:33.930Z,99112.64
2018-04-19T10:23:39.075Z,99111.61
2018-04-19T10:24:45.102Z,99107.37
2018-04-19T10:25:50.349Z,99107.81
2018-04-19T10:26:55.371Z,99104.10
2018-04-19T10:28:03.352Z,99102.58
2018-04-19T10:29:08.058Z,99111.13
2018-04-19T10:30:14.504Z,99110.48
2018-04-19T10:31:19.459Z,99105.94
2018-04-19T10:32:25.213Z,99098.53
2018-04-19T10:33:30.924Z,99095.25
2018-04-19T10:34:36.769Z,99096.78
2018-04-19T10:35:42.502Z,99096.83
2018-04-19T10:36:48.143Z,99101.48
2018-04-19T10:37:52.883Z,99091.78
2018-04-19T10:38:58.489Z,99088.00
2018-04-19T10:40:03.616Z,99097.33
2018-04-19T10:41:08.794Z,99094.98
2018-04-19T10:42:14.112Z,99093.95
2018-04-19T10:43:20.096Z,99098.92
2018-04-19T10:44:25.266Z,99099.98
2018-04-19T10:45:30.132Z,99087.80
2018-04-19T10:46:35.979Z,99095.80
2018-04-19T10:47:41.341Z,99081.61
2018-04-19T10:48:47.225Z,99095.64
2018-04-19T10:49:52.492Z,99085.48
2018-04-19T10:51:01.325Z,99083.77
2018-04-19T10:52:06.431Z,99081.81
2018-04-19T10:53:10.992Z,99089.87
2018-04-19T10:54:16.089Z,99077.97
2018-04-19T10:55:21.778Z,99088.23
2018-04-19T10:56:26.371Z,99081.59
2018-04-19T10:57:30.956Z,99083.69
2018-04-19T10:58:35.579Z,99083.86
2018-04-19T10:59:40.134Z,99079.01
2018-04-19T11:00:44.821Z,99072.05
2018-04-19T11:01:50.539Z,99067.28
2018-04-19T11:02:55.310Z,99068.03
2018-04-19T11:03:59.836Z,99065.32
2018-04-19T11:05:04.482Z,99068.27
2018-04-19T11:06:09.104Z,99072.18
2018-04-19T11:07:13.615Z,99076.94
2018-04-19T11:08:18.467Z,99067.35
2018-04-19T11:09:23.392Z,99067.87
2018-04-19T11:10:29.065Z,99065.93
2018-04-19T11:11:33.777Z,99070.05
2018-04-19T11:12:38.431Z,99064.84
2018-04-19T11:13:43.153Z,99063.79
2018-04-19T11:14:48.314Z,99056.17
2018-04-19T11:15:52.976Z,99057.91
2018-04-19T11:16:57.648Z,99065.08
2018-04-19T11:18:02.228Z,99056.42
2018-04-19T11:19:06.767Z,99048.36
2018-04-19T11:20:11.428Z,99052.76
2018-04-19T11:21:16.357Z,99048.39
2018-04-19T11:22:20.961Z,99051.70
2018-04-19T11:23:25.633Z,99043.56
2018-04-19T11:24:30.969Z,99040.87
2018-04-19T11:25:35.768Z,99047.15
2018-04-19T11:26:40.479Z,99049.97
2018-04-19T11:27:46.053Z,99042.88
2018-04-19T11:28:51.494Z,99039.33
2018-04-19T11:29:58.139Z,99049.30
2018-04-19T11:31:03.238Z,99044.29
2018-04-19T11:32:07.824Z,99038.71
2018-04-19T11:33:13.944Z,99036.05
2018-04-19T11:34:19.335Z,99036.14
2018-04-19T11:35:24.133Z,99025.96
2018-04-19T11:36:29.002Z,99027.98
2018-04-19T11:37:34.885Z,99035.10
2018-04-19T11:38:40.042Z,99027.90
2018-04-19T11:39:44.879Z,99030.72
2018-04-19T11:40:51.539Z,99035.00
2018-04-19T11:41:57.664Z,99033.00
2018-04-19T11:43:02.331Z,99028.80
2018-04-19T11:44:08.267Z,99022.10
2018-04-19T11:45:12.813Z,99022.75
2018-04-19T11:46:17.883Z,99030.81
2018-04-19T11:47:22.865Z,99023.81
2018-04-19T11:48:27.452Z,99020.55
2018-04-19T11:49:32.436Z,99021.95
2018-04-19T11:50:38.071Z,99015.22
2018-04-19T11:51:43.826Z,99012.41
2018-04-19T11:52:49.103Z,99014.00
2018-04-19T11:53:53.795Z,99019.45
2018-04-19T11:54:58.428Z,99011.66
2018-04-19T11:56:02.982Z,99010.09
2018-04-19T11:57:07.575Z,99004.92
2018-04-19T11:58:12.104Z,99004.43
2018-04-19T11:59:17.677Z,99007.14
2018-04-19T12:00:22.853Z,99008.81
2018-04-19T12:01:28.479Z,99002.97
2018-04-19T12:02:33.529Z,99001.29
2018-04-19T12:03:40.017Z,99008.94
2018-04-19T12:04:44.639Z,99010.31
2018-04-19T12:05:49.821Z,98999.94
2018-04-19T12:06:56.174Z,98997.61
2018-04-19T12:08:01.096Z,98998.95
2018-04-19T12:09:06.841Z,99013.14
2018-04-19T12:10:12.157Z,99007.67
2018-04-19T12:11:18.217Z,99007.41
2018-04-19T12:12:23.381Z,99004.58
2018-04-19T12:13:29.419Z,99005.80
2018-04-19T12:14:35.165Z,98997.38
2018-04-19T12:15:40.552Z,98997.81
2018-04-19T12:16:46.960Z,98999.32
2018-04-19T12:17:52.801Z,98995.81
2018-04-19T12:18:58.112Z,98996.02
2018-04-19T12:20:04.406Z,99000.70
2018-04-19T12:21:11.633Z,98999.76
2018-04-19T12:22:17.203Z,98994.77
2018-04-19T12:23:24.125Z,98996.42
2018-04-19T12:24:29.094Z,98999.00
2018-04-19T12:25:35.083Z,99000.73
2018-04-19T12:26:39.763Z,98990.34
2018-04-19T12:27:45.008Z,98992.52
2018-04-19T12:28:50.479Z,98994.20
2018-04-19T12:29:55.349Z,98987.42
2018-04-19T12:31:00.356Z,98985.39
2018-04-19T12:32:06.523Z,98991.84
2018-04-19T12:33:11.176Z,98983.67
2018-04-19T12:34:15.678Z,98979.77
2018-04-19T12:35:21.508Z,98988.69
2018-04-19T12:36:26.927Z,98990.03
2018-04-19T12:37:31.698Z,98983.48
2018-04-19T12:38:36.169Z,98990.56
2018-04-19T12:39:41.438Z,98985.39
2018-04-19T12:40:46.072Z,98984.61
2018-04-19T12:41:50.796Z,98987.17
2018-04-19T12:42:56.440Z,98988.80
2018-04-19T12:44:02.840Z,98979.34
2018-04-19T12:45:07.439Z,98980.80
2018-04-19T12:46:12.081Z,98971.94
2018-04-19T12:47:16.665Z,98975.45
2018-04-19T12:48:21.285Z,98971.99
2018-04-19T12:49:27.428Z,98973.72
2018-04-19T12:50:32.159Z,98971.56